Ktima, Cyprus
Current Conditions -  °F | °C
As of 5:00 PM on Saturday 01 Nov 2014 (Local Time) from LCPH Reporting Station
Scattered Clouds Scattered Clouds  
Wind Chill: 22°   Ceiling: Unl
Heat Index: 22°   Visibility: 6mi
Dew Point: 16°   Wind: 14mph
Humidity: 69%   Direction: 290°WNW
Pressure: 29.94"   Gusts: NA
Location:  34.76°N, 32.42°E
Report Text: LCPH 011400Z 29012KT 9999 SCT025 FEW030TCU FEW035CB 22/16 Q1014
Loading
Personal Weather Stations






























Interactive Weather Map
Tropical Storm Tracking
New forecast layout! Learn more

10-Day Weather Forecast

Advertisements
Track Severe Weather on mobile